sensor_id;sensor_type;location;lat;lon;timestamp;temperature;humidity
52209;DHT22;38507;53.132;6.394;2024-03-23T00:52:10;5.40;99.90
52209;DHT22;38507;53.132;6.394;2024-03-23T00:54:35;5.40;99.90
52209;DHT22;38507;53.132;6.394;2024-03-23T00:57:01;5.40;99.90
52209;DHT22;38507;53.132;6.394;2024-03-23T00:59:27;5.90;99.90
52209;DHT22;38507;53.132;6.394;2024-03-23T01:01:54;5.30;99.90
52209;DHT22;38507;53.132;6.394;2024-03-23T01:04:20;5.30;99.90
52209;DHT22;38507;53.132;6.394;2024-03-23T01:06:46;5.80;99.90
52209;DHT22;38507;53.132;6.394;2024-03-23T01:09:12;5.20;99.90
52209;DHT22;38507;53.132;6.394;2024-03-23T01:11:39;5.80;99.90
52209;DHT22;38507;53.132;6.394;2024-03-23T01:14:05;5.20;99.90
52209;DHT22;38507;53.132;6.394;2024-03-23T01:16:31;5.10;99.90
52209;DHT22;38507;53.132;6.394;2024-03-23T01:18:57;5.10;99.90
52209;DHT22;38507;53.132;6.394;2024-03-23T01:21:23;5.00;99.90
52209;DHT22;38507;53.132;6.394;2024-03-23T01:23:49;5.00;99.90
52209;DHT22;38507;53.132;6.394;2024-03-23T01:26:14;5.00;99.90
52209;DHT22;38507;53.132;6.394;2024-03-23T01:28:40;5.30;99.90
52209;DHT22;38507;53.132;6.394;2024-03-23T01:31:06;4.90;99.90
52209;DHT22;38507;53.132;6.394;2024-03-23T01:33:31;4.90;99.90
52209;DHT22;38507;53.132;6.394;2024-03-23T01:35:57;4.90;99.90
52209;DHT22;38507;53.132;6.394;2024-03-23T01:38:23;4.80;99.90
52209;DHT22;38507;53.132;6.394;2024-03-23T01:40:48;4.30;99.90
52209;DHT22;38507;53.132;6.394;2024-03-23T01:43:14;4.80;99.90
52209;DHT22;38507;53.132;6.394;2024-03-23T01:45:40;4.80;99.90
52209;DHT22;38507;53.132;6.394;2024-03-23T01:48:06;4.80;99.90
52209;DHT22;38507;53.132;6.394;2024-03-23T01:50:32;4.70;99.90
52209;DHT22;38507;53.132;6.394;2024-03-23T01:53:02;4.70;99.90
52209;DHT22;38507;53.132;6.394;2024-03-23T01:55:34;4.70;99.90
52209;DHT22;38507;53.132;6.394;2024-03-23T01:57:59;5.30;99.90
52209;DHT22;38507;53.132;6.394;2024-03-23T02:00:25;5.60;99.90
52209;DHT22;38507;53.132;6.394;2024-03-23T02:02:53;4.60;99.90
52209;DHT22;38507;53.132;6.394;2024-03-23T02:05:18;4.60;99.90
52209;DHT22;38507;53.132;6.394;2024-03-23T02:07:44;4.50;99.90
52209;DHT22;38507;53.132;6.394;2024-03-23T02:10:10;4.60;99.90
52209;DHT22;38507;53.132;6.394;2024-03-23T02:12:38;4.60;99.90
52209;DHT22;38507;53.132;6.394;2024-03-23T02:15:04;4.50;99.90
52209;DHT22;38507;53.132;6.394;2024-03-23T02:17:32;4.50;99.90
52209;DHT22;38507;53.132;6.394;2024-03-23T02:19:59;5.50;99.90
52209;DHT22;38507;53.132;6.394;2024-03-23T02:22:24;4.40;99.90
52209;DHT22;38507;53.132;6.394;2024-03-23T02:24:50;4.30;99.90
52209;DHT22;38507;53.132;6.394;2024-03-23T02:27:16;4.40;99.90
52209;DHT22;38507;53.132;6.394;2024-03-23T02:29:41;4.40;99.90
52209;DHT22;38507;53.132;6.394;2024-03-23T02:32:07;4.40;99.90
52209;DHT22;38507;53.132;6.394;2024-03-23T02:34:35;4.40;99.90
52209;DHT22;38507;53.132;6.394;2024-03-23T02:37:00;4.30;99.90
52209;DHT22;38507;53.132;6.394;2024-03-23T02:39:26;4.40;99.90
52209;DHT22;38507;53.132;6.394;2024-03-23T02:41:52;4.40;99.90
52209;DHT22;38507;53.132;6.394;2024-03-23T02:44:17;4.80;99.90
52209;DHT22;38507;53.132;6.394;2024-03-23T02:46:43;4.30;99.90
52209;DHT22;38507;53.132;6.394;2024-03-23T02:49:08;4.30;99.90
52209;DHT22;38507;53.132;6.394;2024-03-23T02:51:34;4.40;99.90
52209;DHT22;38507;53.132;6.394;2024-03-23T02:54:00;4.20;99.90
52209;DHT22;38507;53.132;6.394;2024-03-23T02:56:25;4.30;99.90
52209;DHT22;38507;53.132;6.394;2024-03-23T02:58:51;4.30;99.90
52209;DHT22;38507;53.132;6.394;2024-03-23T03:01:16;4.30;99.90
52209;DHT22;38507;53.132;6.394;2024-03-23T03:03:42;4.40;99.90
52209;DHT22;38507;53.132;6.394;2024-03-23T03:06:07;4.30;99.90
52209;DHT22;38507;53.132;6.394;2024-03-23T03:08:33;4.30;99.90
52209;DHT22;38507;53.132;6.394;2024-03-23T03:10:59;5.50;99.90
52209;DHT22;38507;53.132;6.394;2024-03-23T03:13:25;4.40;99.90
52209;DHT22;38507;53.132;6.394;2024-03-23T03:15:50;4.40;99.90
52209;DHT22;38507;53.132;6.394;2024-03-23T03:18:16;4.40;99.90
52209;DHT22;38507;53.132;6.394;2024-03-23T03:20:41;4.40;99.90
52209;DHT22;38507;53.132;6.394;2024-03-23T03:23:07;4.30;99.90
52209;DHT22;38507;53.132;6.394;2024-03-23T03:25:34;4.20;99.90
52209;DHT22;38507;53.132;6.394;2024-03-23T03:27:59;5.30;99.90
52209;DHT22;38507;53.132;6.394;2024-03-23T03:30:25;4.30;99.90
52209;DHT22;38507;53.132;6.394;2024-03-23T03:32:53;4.20;99.90
52209;DHT22;38507;53.132;6.394;2024-03-23T03:35:19;4.30;99.90
52209;DHT22;38507;53.132;6.394;2024-03-23T03:37:45;4.20;99.90
52209;DHT22;38507;53.132;6.394;2024-03-23T03:40:11;4.20;99.90
52209;DHT22;38507;53.132;6.394;2024-03-23T03:42:37;4.30;99.90
52209;DHT22;38507;53.132;6.394;2024-03-23T03:45:03;4.20;99.90
52209;DHT22;38507;53.132;6.394;2024-03-23T03:47:30;4.20;99.90
52209;DHT22;38507;53.132;6.394;2024-03-23T03:49:55;4.20;99.90
52209;DHT22;38507;53.132;6.394;2024-03-23T03:52:21;4.10;99.90
52209;DHT22;38507;53.132;6.394;2024-03-23T03:54:47;4.20;99.90
52209;DHT22;38507;53.132;6.394;2024-03-23T03:57:12;4.10;99.90
52209;DHT22;38507;53.132;6.394;2024-03-23T03:59:38;4.10;99.90
52209;DHT22;38507;53.132;6.394;2024-03-23T04:02:04;4.10;99.90
52209;DHT22;38507;53.132;6.394;2024-03-23T04:04:29;4.10;99.90
52209;DHT22;38507;53.132;6.394;2024-03-23T04:07:02;4.00;99.90
52209;DHT22;38507;53.132;6.394;2024-03-23T04:09:33;4.00;99.90
52209;DHT22;38507;53.132;6.394;2024-03-23T04:11:58;4.00;99.90
52209;DHT22;38507;53.132;6.394;2024-03-23T04:14:24;4.00;99.90
52209;DHT22;38507;53.132;6.394;2024-03-23T04:16:50;3.90;99.90
52209;DHT22;38507;53.132;6.394;2024-03-23T04:19:15;3.90;99.90
52209;DHT22;38507;53.132;6.394;2024-03-23T04:21:41;3.90;99.90
52209;DHT22;38507;53.132;6.394;2024-03-23T04:24:06;3.80;99.90
52209;DHT22;38507;53.132;6.394;2024-03-23T04:26:42;4.00;99.90
52209;DHT22;38507;53.132;6.394;2024-03-23T04:29:07;3.80;99.90
52209;DHT22;38507;53.132;6.394;2024-03-23T04:31:33;3.70;99.90
52209;DHT22;38507;53.132;6.394;2024-03-23T04:34:00;3.70;99.90
52209;DHT22;38507;53.132;6.394;2024-03-23T04:36:26;3.70;99.90
52209;DHT22;38507;53.132;6.394;2024-03-23T04:38:52;3.60;99.90
52209;DHT22;38507;53.132;6.394;2024-03-23T04:41:18;3.60;99.90
52209;DHT22;38507;53.132;6.394;2024-03-23T04:43:43;3.60;99.90
52209;DHT22;38507;53.132;6.394;2024-03-23T04:46:09;3.60;99.90
52209;DHT22;38507;53.132;6.394;2024-03-23T04:48:35;3.60;99.90
52209;DHT22;38507;53.132;6.394;2024-03-23T04:51:02;3.60;99.90
52209;DHT22;38507;53.132;6.394;2024-03-23T04:53:27;3.60;99.90
52209;DHT22;38507;53.132;6.394;2024-03-23T04:55:56;3.60;99.90
52209;DHT22;38507;53.132;6.394;2024-03-23T04:58:22;3.50;99.90
52209;DHT22;38507;53.132;6.394;2024-03-23T05:00:55;3.60;99.90
52209;DHT22;38507;53.132;6.394;2024-03-23T05:03:21;3.60;99.90
52209;DHT22;38507;53.132;6.394;2024-03-23T05:05:48;3.50;99.90
52209;DHT22;38507;53.132;6.394;2024-03-23T05:08:14;3.50;99.90
52209;DHT22;38507;53.132;6.394;2024-03-23T05:10:42;3.50;99.90
52209;DHT22;38507;53.132;6.394;2024-03-23T05:13:07;3.40;99.90
52209;DHT22;38507;53.132;6.394;2024-03-23T05:15:33;3.50;99.90
52209;DHT22;38507;53.132;6.394;2024-03-23T05:17:59;3.40;99.90
52209;DHT22;38507;53.132;6.394;2024-03-23T05:20:24;3.40;99.90
52209;DHT22;38507;53.132;6.394;2024-03-23T05:22:50;3.70;99.90
52209;DHT22;38507;53.132;6.394;2024-03-23T05:25:16;3.40;99.90
52209;DHT22;38507;53.132;6.394;2024-03-23T05:27:41;3.50;99.90
52209;DHT22;38507;53.132;6.394;2024-03-23T05:30:07;3.40;99.90
52209;DHT22;38507;53.132;6.394;2024-03-23T05:32:34;3.40;99.90
52209;DHT22;38507;53.132;6.394;2024-03-23T05:35:00;3.40;99.90
52209;DHT22;38507;53.132;6.394;2024-03-23T05:37:26;3.40;99.90
52209;DHT22;38507;53.132;6.394;2024-03-23T05:39:52;3.50;99.90
52209;DHT22;38507;53.132;6.394;2024-03-23T05:42:18;3.40;99.90
52209;DHT22;38507;53.132;6.394;2024-03-23T05:44:47;3.50;99.90
52209;DHT22;38507;53.132;6.394;2024-03-23T05:47:13;3.50;99.90
52209;DHT22;38507;53.132;6.394;2024-03-23T05:49:46;3.50;99.90
52209;DHT22;38507;53.132;6.394;2024-03-23T05:52:11;3.90;99.90
52209;DHT22;38507;53.132;6.394;2024-03-23T05:54:37;3.70;99.90
52209;DHT22;38507;53.132;6.394;2024-03-23T05:57:03;3.80;99.90
52209;DHT22;38507;53.132;6.394;2024-03-23T05:59:29;4.00;99.90
52209;DHT22;38507;53.132;6.394;2024-03-23T06:01:55;4.00;99.90
52209;DHT22;38507;53.132;6.394;2024-03-23T06:04:20;4.00;99.90
52209;DHT22;38507;53.132;6.394;2024-03-23T06:06:50;4.00;99.90
52209;DHT22;38507;53.132;6.394;2024-03-23T06:09:17;4.20;99.90
52209;DHT22;38507;53.132;6.394;2024-03-23T06:11:43;4.10;99.90
52209;DHT22;38507;53.132;6.394;2024-03-23T06:14:08;4.00;99.90
52209;DHT22;38507;53.132;6.394;2024-03-23T06:16:34;5.10;99.90
52209;DHT22;38507;53.132;6.394;2024-03-23T06:19:00;4.10;99.90
52209;DHT22;38507;53.132;6.394;2024-03-23T06:21:25;4.10;99.90
52209;DHT22;38507;53.132;6.394;2024-03-23T06:23:52;4.10;99.90
52209;DHT22;38507;53.132;6.394;2024-03-23T06:26:18;5.00;99.90
52209;DHT22;38507;53.132;6.394;2024-03-23T06:28:44;4.10;99.90
52209;DHT22;38507;53.132;6.394;2024-03-23T06:31:10;4.10;99.90
52209;DHT22;38507;53.132;6.394;2024-03-23T06:33:36;4.00;99.90
52209;DHT22;38507;53.132;6.394;2024-03-23T06:36:02;4.20;99.90
52209;DHT22;38507;53.132;6.394;2024-03-23T06:38:28;4.20;99.90
52209;DHT22;38507;53.132;6.394;2024-03-23T06:40:54;4.10;99.90
52209;DHT22;38507;53.132;6.394;2024-03-23T06:43:20;4.10;99.90
52209;DHT22;38507;53.132;6.394;2024-03-23T06:45:52;4.10;99.90
52209;DHT22;38507;53.132;6.394;2024-03-23T06:48:18;4.20;99.90
52209;DHT22;38507;53.132;6.394;2024-03-23T06:50:45;4.20;99.90
52209;DHT22;38507;53.132;6.394;2024-03-23T06:53:14;4.30;99.90
52209;DHT22;38507;53.132;6.394;2024-03-23T06:55:40;4.30;99.90
52209;DHT22;38507;53.132;6.394;2024-03-23T06:58:06;4.40;99.90
52209;DHT22;38507;53.132;6.394;2024-03-23T07:00:32;4.50;99.90
52209;DHT22;38507;53.132;6.394;2024-03-23T07:02:59;4.60;99.90
52209;DHT22;38507;53.132;6.394;2024-03-23T07:05:24;6.00;99.90
52209;DHT22;38507;53.132;6.394;2024-03-23T07:07:50;4.60;99.90
52209;DHT22;38507;53.132;6.394;2024-03-23T07:10:16;4.70;99.90
52209;DHT22;38507;53.132;6.394;2024-03-23T07:12:41;4.70;99.90
52209;DHT22;38507;53.132;6.394;2024-03-23T07:15:07;4.70;99.90
52209;DHT22;38507;53.132;6.394;2024-03-23T07:17:33;4.90;99.90
52209;DHT22;38507;53.132;6.394;2024-03-23T07:20:01;4.90;99.90
52209;DHT22;38507;53.132;6.394;2024-03-23T07:22:30;4.90;99.90
52209;DHT22;38507;53.132;6.394;2024-03-23T07:24:55;5.00;99.90
52209;DHT22;38507;53.132;6.394;2024-03-23T07:27:21;5.00;99.90
52209;DHT22;38507;53.132;6.394;2024-03-23T07:29:47;5.10;99.90
52209;DHT22;38507;53.132;6.394;2024-03-23T07:32:12;5.20;99.90
52209;DHT22;38507;53.132;6.394;2024-03-23T07:34:38;5.30;99.90
52209;DHT22;38507;53.132;6.394;2024-03-23T07:37:03;5.30;99.90
52209;DHT22;38507;53.132;6.394;2024-03-23T07:39:29;5.30;99.90
52209;DHT22;38507;53.132;6.394;2024-03-23T07:41:57;5.40;99.90
52209;DHT22;38507;53.132;6.394;2024-03-23T07:44:22;5.40;99.90
52209;DHT22;38507;53.132;6.394;2024-03-23T07:46:48;5.40;99.90
52209;DHT22;38507;53.132;6.394;2024-03-23T07:49:14;5.40;99.90
52209;DHT22;38507;53.132;6.394;2024-03-23T07:51:39;5.40;99.90
52209;DHT22;38507;53.132;6.394;2024-03-23T07:54:06;5.40;99.90
52209;DHT22;38507;53.132;6.394;2024-03-23T07:56:32;5.50;99.90
52209;DHT22;38507;53.132;6.394;2024-03-23T07:58:57;5.60;99.90
52209;DHT22;38507;53.132;6.394;2024-03-23T08:01:23;5.70;99.90
52209;DHT22;38507;53.132;6.394;2024-03-23T08:03:49;5.70;99.90
52209;DHT22;38507;53.132;6.394;2024-03-23T08:06:18;5.80;99.90
52209;DHT22;38507;53.132;6.394;2024-03-23T08:08:46;5.90;99.90
52209;DHT22;38507;53.132;6.394;2024-03-23T08:11:12;5.60;99.90
52209;DHT22;38507;53.132;6.394;2024-03-23T08:13:39;5.90;99.90
52209;DHT22;38507;53.132;6.394;2024-03-23T08:16:05;5.90;99.90
52209;DHT22;38507;53.132;6.394;2024-03-23T08:18:31;6.00;99.90
52209;DHT22;38507;53.132;6.394;2024-03-23T08:21:02;6.20;99.90
52209;DHT22;38507;53.132;6.394;2024-03-23T08:23:29;6.30;99.90
52209;DHT22;38507;53.132;6.394;2024-03-23T08:25:59;6.30;99.90
52209;DHT22;38507;53.132;6.394;2024-03-23T08:28:26;6.40;99.90
52209;DHT22;38507;53.132;6.394;2024-03-23T08:30:52;6.60;99.90
52209;DHT22;38507;53.132;6.394;2024-03-23T08:33:18;6.70;99.90
52209;DHT22;38507;53.132;6.394;2024-03-23T08:35:57;6.90;99.90
52209;DHT22;38507;53.132;6.394;2024-03-23T08:38:26;6.90;99.90
52209;DHT22;38507;53.132;6.394;2024-03-23T08:41:02;6.90;99.90
52209;DHT22;38507;53.132;6.394;2024-03-23T08:43:29;6.90;99.90
52209;DHT22;38507;53.132;6.394;2024-03-23T08:46:09;6.90;99.90
52209;DHT22;38507;53.132;6.394;2024-03-23T08:48:40;6.90;99.90
52209;DHT22;38507;53.132;6.394;2024-03-23T08:51:09;6.90;99.90
52209;DHT22;38507;53.132;6.394;2024-03-23T08:53:36;6.90;99.90
52209;DHT22;38507;53.132;6.394;2024-03-23T08:56:03;8.20;99.90
52209;DHT22;38507;53.132;6.394;2024-03-23T08:58:30;7.20;99.90
52209;DHT22;38507;53.132;6.394;2024-03-23T09:01:02;7.30;99.90
52209;DHT22;38507;53.132;6.394;2024-03-23T09:03:28;7.30;99.90
52209;DHT22;38507;53.132;6.394;2024-03-23T09:05:54;7.30;99.90
52209;DHT22;38507;53.132;6.394;2024-03-23T09:08:21;8.10;99.90
52209;DHT22;38507;53.132;6.394;2024-03-23T09:10:47;7.10;99.90
52209;DHT22;38507;53.132;6.394;2024-03-23T09:13:13;7.70;99.90
52209;DHT22;38507;53.132;6.394;2024-03-23T09:15:49;7.20;99.90
52209;DHT22;38507;53.132;6.394;2024-03-23T09:18:16;7.50;99.90
52209;DHT22;38507;53.132;6.394;2024-03-23T09:20:42;7.60;99.90
52209;DHT22;38507;53.132;6.394;2024-03-23T09:23:07;7.80;99.90
52209;DHT22;38507;53.132;6.394;2024-03-23T09:25:37;8.10;99.90
52209;DHT22;38507;53.132;6.394;2024-03-23T09:28:03;9.00;99.90
52209;DHT22;38507;53.132;6.394;2024-03-23T09:30:28;8.60;99.90
52209;DHT22;38507;53.132;6.394;2024-03-23T09:32:54;10.00;99.90
52209;DHT22;38507;53.132;6.394;2024-03-23T09:35:20;8.50;99.90
52209;DHT22;38507;53.132;6.394;2024-03-23T09:37:45;7.20;99.90
52209;DHT22;38507;53.132;6.394;2024-03-23T09:40:11;7.00;99.90
52209;DHT22;38507;53.132;6.394;2024-03-23T09:42:37;6.80;99.90
52209;DHT22;38507;53.132;6.394;2024-03-23T09:45:13;6.50;99.90
52209;DHT22;38507;53.132;6.394;2024-03-23T09:47:41;6.80;99.90
52209;DHT22;38507;53.132;6.394;2024-03-23T09:50:07;7.10;99.90
52209;DHT22;38507;53.132;6.394;2024-03-23T09:52:33;7.30;99.90
52209;DHT22;38507;53.132;6.394;2024-03-23T09:54:58;7.30;99.90
52209;DHT22;38507;53.132;6.394;2024-03-23T09:57:24;7.30;99.90
52209;DHT22;38507;53.132;6.394;2024-03-23T09:59:50;7.10;99.90
52209;DHT22;38507;53.132;6.394;2024-03-23T10:02:16;7.00;99.90
52209;DHT22;38507;53.132;6.394;2024-03-23T10:04:42;6.90;99.90
52209;DHT22;38507;53.132;6.394;2024-03-23T10:07:17;7.00;99.90
52209;DHT22;38507;53.132;6.394;2024-03-23T10:09:43;7.40;99.90
52209;DHT22;38507;53.132;6.394;2024-03-23T10:12:13;7.70;99.90
52209;DHT22;38507;53.132;6.394;2024-03-23T10:14:40;8.00;99.90
52209;DHT22;38507;53.132;6.394;2024-03-23T10:17:31;8.20;99.90
52209;DHT22;38507;53.132;6.394;2024-03-23T10:19:57;8.30;99.90
52209;DHT22;38507;53.132;6.394;2024-03-23T10:22:23;8.60;99.90
52209;DHT22;38507;53.132;6.394;2024-03-23T10:24:50;8.60;99.90
52209;DHT22;38507;53.132;6.394;2024-03-23T10:27:20;8.60;99.90
52209;DHT22;38507;53.132;6.394;2024-03-23T10:29:50;8.40;99.90
52209;DHT22;38507;53.132;6.394;2024-03-23T10:32:18;8.20;99.90
52209;DHT22;38507;53.132;6.394;2024-03-23T10:34:45;9.10;99.90
52209;DHT22;38507;53.132;6.394;2024-03-23T10:37:11;7.90;99.90
52209;DHT22;38507;53.132;6.394;2024-03-23T10:39:41;7.80;99.90
52209;DHT22;38507;53.132;6.394;2024-03-23T10:42:10;7.80;99.90
52209;DHT22;38507;53.132;6.394;2024-03-23T10:44:36;7.90;99.90
52209;DHT22;38507;53.132;6.394;2024-03-23T10:47:02;7.80;99.90
52209;DHT22;38507;53.132;6.394;2024-03-23T10:49:32;7.80;99.90
52209;DHT22;38507;53.132;6.394;2024-03-23T10:51:59;7.90;99.90
52209;DHT22;38507;53.132;6.394;2024-03-23T10:54:26;7.80;99.90
52209;DHT22;38507;53.132;6.394;2024-03-23T10:57:11;7.70;99.90
52209;DHT22;38507;53.132;6.394;2024-03-23T10:59:39;7.70;99.90
52209;DHT22;38507;53.132;6.394;2024-03-23T11:02:05;7.70;99.90
52209;DHT22;38507;53.132;6.394;2024-03-23T11:04:35;7.60;99.90
52209;DHT22;38507;53.132;6.394;2024-03-23T11:07:02;7.20;99.90
52209;DHT22;38507;53.132;6.394;2024-03-23T11:09:43;6.80;99.90
52209;DHT22;38507;53.132;6.394;2024-03-23T11:14:52;7.00;99.90
52209;DHT22;38507;53.132;6.394;2024-03-23T11:17:18;7.40;99.90
52209;DHT22;38507;53.132;6.394;2024-03-23T11:19:44;7.70;99.90
52209;DHT22;38507;53.132;6.394;2024-03-23T11:25:22;7.90;99.90
52209;DHT22;38507;53.132;6.394;2024-03-23T11:28:09;8.20;99.90
52209;DHT22;38507;53.132;6.394;2024-03-23T11:30:35;8.30;99.90
52209;DHT22;38507;53.132;6.394;2024-03-23T11:33:02;8.40;99.90
52209;DHT22;38507;53.132;6.394;2024-03-23T11:35:32;8.40;99.90
52209;DHT22;38507;53.132;6.394;2024-03-23T11:38:08;8.30;99.90
52209;DHT22;38507;53.132;6.394;2024-03-23T11:40:36;8.20;99.90
52209;DHT22;38507;53.132;6.394;2024-03-23T11:43:04;8.30;99.90
52209;DHT22;38507;53.132;6.394;2024-03-23T11:45:52;8.50;99.90
52209;DHT22;38507;53.132;6.394;2024-03-23T11:48:19;8.30;99.90
52209;DHT22;38507;53.132;6.394;2024-03-23T11:50:50;9.00;99.90
52209;DHT22;38507;53.132;6.394;2024-03-23T11:53:18;7.60;99.90
52209;DHT22;38507;53.132;6.394;2024-03-23T11:55:51;7.40;99.90
52209;DHT22;38507;53.132;6.394;2024-03-23T11:58:18;7.10;99.90
52209;DHT22;38507;53.132;6.394;2024-03-23T12:00:52;6.90;99.90
52209;DHT22;38507;53.132;6.394;2024-03-23T12:03:18;7.60;99.90
52209;DHT22;38507;53.132;6.394;2024-03-23T12:05:50;6.70;99.90
52209;DHT22;38507;53.132;6.394;2024-03-23T12:08:24;7.00;99.90
52209;DHT22;38507;53.132;6.394;2024-03-23T12:10:52;7.10;99.90
52209;DHT22;38507;53.132;6.394;2024-03-23T12:13:21;6.50;99.90
52209;DHT22;38507;53.132;6.394;2024-03-23T12:15:50;7.20;99.90
52209;DHT22;38507;53.132;6.394;2024-03-23T12:18:16;6.40;99.90
52209;DHT22;38507;53.132;6.394;2024-03-23T12:20:42;6.30;99.90
52209;DHT22;38507;53.132;6.394;2024-03-23T12:23:09;7.10;99.90
52209;DHT22;38507;53.132;6.394;2024-03-23T12:25:37;6.30;99.90
52209;DHT22;38507;53.132;6.394;2024-03-23T12:28:03;6.20;99.90
52209;DHT22;38507;53.132;6.394;2024-03-23T12:30:32;6.20;99.90
52209;DHT22;38507;53.132;6.394;2024-03-23T12:32:57;6.20;99.90
52209;DHT22;38507;53.132;6.394;2024-03-23T12:35:23;6.30;99.90
52209;DHT22;38507;53.132;6.394;2024-03-23T12:37:49;6.40;99.90
52209;DHT22;38507;53.132;6.394;2024-03-23T12:40:14;6.50;99.90
52209;DHT22;38507;53.132;6.394;2024-03-23T12:42:40;6.50;99.90
52209;DHT22;38507;53.132;6.394;2024-03-23T12:45:06;6.60;99.90
52209;DHT22;38507;53.132;6.394;2024-03-23T12:47:31;6.60;99.90
52209;DHT22;38507;53.132;6.394;2024-03-23T12:49:57;6.50;99.90
52209;DHT22;38507;53.132;6.394;2024-03-23T12:52:23;7.70;99.90
52209;DHT22;38507;53.132;6.394;2024-03-23T12:54:56;7.00;99.90
52209;DHT22;38507;53.132;6.394;2024-03-23T12:57:25;8.00;99.90
52209;DHT22;38507;53.132;6.394;2024-03-23T12:59:52;7.20;99.90
52209;DHT22;38507;53.132;6.394;2024-03-23T13:02:20;7.30;99.90
52209;DHT22;38507;53.132;6.394;2024-03-23T13:04:49;7.30;99.90
52209;DHT22;38507;53.132;6.394;2024-03-23T13:07:16;7.20;99.90
52209;DHT22;38507;53.132;6.394;2024-03-23T13:09:42;7.10;99.90
52209;DHT22;38507;53.132;6.394;2024-03-23T13:12:08;6.90;99.90
52209;DHT22;38507;53.132;6.394;2024-03-23T13:14:33;6.70;99.90
52209;DHT22;38507;53.132;6.394;2024-03-23T13:16:59;7.00;99.90
52209;DHT22;38507;53.132;6.394;2024-03-23T13:19:25;7.30;99.90
52209;DHT22;38507;53.132;6.394;2024-03-23T13:21:56;7.50;99.90
52209;DHT22;38507;53.132;6.394;2024-03-23T13:24:23;7.80;99.90
52209;DHT22;38507;53.132;6.394;2024-03-23T13:26:50;8.10;99.90
52209;DHT22;38507;53.132;6.394;2024-03-23T13:29:16;8.30;99.90
52209;DHT22;38507;53.132;6.394;2024-03-23T13:31:42;8.40;99.90
52209;DHT22;38507;53.132;6.394;2024-03-23T13:34:07;8.30;99.90
52209;DHT22;38507;53.132;6.394;2024-03-23T13:36:33;8.20;99.90
52209;DHT22;38507;53.132;6.394;2024-03-23T13:38:58;9.10;99.90
52209;DHT22;38507;53.132;6.394;2024-03-23T13:41:25;8.00;99.90
52209;DHT22;38507;53.132;6.394;2024-03-23T13:43:50;7.50;99.90
52209;DHT22;38507;53.132;6.394;2024-03-23T13:46:16;7.40;99.90
52209;DHT22;38507;53.132;6.394;2024-03-23T13:48:41;7.50;99.90
52209;DHT22;38507;53.132;6.394;2024-03-23T13:51:07;8.50;99.90
52209;DHT22;38507;53.132;6.394;2024-03-23T13:53:33;7.90;99.90
52209;DHT22;38507;53.132;6.394;2024-03-23T13:55:59;8.00;99.90
52209;DHT22;38507;53.132;6.394;2024-03-23T13:58:24;8.30;99.90
52209;DHT22;38507;53.132;6.394;2024-03-23T14:00:53;9.40;99.90
52209;DHT22;38507;53.132;6.394;2024-03-23T14:03:18;8.30;99.90
52209;DHT22;38507;53.132;6.394;2024-03-23T14:05:45;9.50;99.90
52209;DHT22;38507;53.132;6.394;2024-03-23T14:08:12;8.10;99.90
52209;DHT22;38507;53.132;6.394;2024-03-23T14:10:41;7.60;99.90
52209;DHT22;38507;53.132;6.394;2024-03-23T14:13:07;7.20;99.90
52209;DHT22;38507;53.132;6.394;2024-03-23T14:15:33;7.40;99.90
52209;DHT22;38507;53.132;6.394;2024-03-23T14:17:59;8.60;99.90
52209;DHT22;38507;53.132;6.394;2024-03-23T14:20:25;8.70;99.90
52209;DHT22;38507;53.132;6.394;2024-03-23T14:22:51;7.90;99.90
52209;DHT22;38507;53.132;6.394;2024-03-23T14:25:17;8.00;99.90
52209;DHT22;38507;53.132;6.394;2024-03-23T14:27:46;9.30;99.90
52209;DHT22;38507;53.132;6.394;2024-03-23T14:30:12;9.20;99.90
52209;DHT22;38507;53.132;6.394;2024-03-23T14:32:39;8.50;99.90
52209;DHT22;38507;53.132;6.394;2024-03-23T14:35:05;9.00;99.90
52209;DHT22;38507;53.132;6.394;2024-03-23T14:37:32;8.70;99.90
52209;DHT22;38507;53.132;6.394;2024-03-23T14:39:58;8.90;99.90
52209;DHT22;38507;53.132;6.394;2024-03-23T14:42:24;8.90;99.90
52209;DHT22;38507;53.132;6.394;2024-03-23T14:44:51;9.50;99.90
52209;DHT22;38507;53.132;6.394;2024-03-23T14:47:17;8.60;99.90
52209;DHT22;38507;53.132;6.394;2024-03-23T14:49:43;8.40;99.90
52209;DHT22;38507;53.132;6.394;2024-03-23T14:52:13;8.30;99.90
52209;DHT22;38507;53.132;6.394;2024-03-23T14:54:39;8.10;99.90
52209;DHT22;38507;53.132;6.394;2024-03-23T14:57:04;7.90;99.90
52209;DHT22;38507;53.132;6.394;2024-03-23T14:59:31;7.70;99.90
52209;DHT22;38507;53.132;6.394;2024-03-23T15:01:57;8.60;99.90
52209;DHT22;38507;53.132;6.394;2024-03-23T15:04:23;8.10;99.90
52209;DHT22;38507;53.132;6.394;2024-03-23T15:06:49;7.90;99.90
52209;DHT22;38507;53.132;6.394;2024-03-23T15:09:15;9.00;99.90
52209;DHT22;38507;53.132;6.394;2024-03-23T15:11:41;7.90;99.90
52209;DHT22;38507;53.132;6.394;2024-03-23T15:14:07;7.80;99.90
52209;DHT22;38507;53.132;6.394;2024-03-23T15:16:33;7.90;99.90
52209;DHT22;38507;53.132;6.394;2024-03-23T15:18:58;8.00;99.90
52209;DHT22;38507;53.132;6.394;2024-03-23T15:21:24;8.20;99.90
52209;DHT22;38507;53.132;6.394;2024-03-23T15:23:50;8.20;99.90
52209;DHT22;38507;53.132;6.394;2024-03-23T15:26:15;8.40;99.90
52209;DHT22;38507;53.132;6.394;2024-03-23T15:28:48;8.40;99.90
52209;DHT22;38507;53.132;6.394;2024-03-23T15:31:23;8.70;99.90
52209;DHT22;38507;53.132;6.394;2024-03-23T15:33:48;9.40;99.90
52209;DHT22;38507;53.132;6.394;2024-03-23T15:36:14;8.30;99.90
52209;DHT22;38507;53.132;6.394;2024-03-23T15:38:40;8.20;99.90
52209;DHT22;38507;53.132;6.394;2024-03-23T15:41:05;8.60;99.90
52209;DHT22;38507;53.132;6.394;2024-03-23T15:43:31;8.90;99.90
52209;DHT22;38507;53.132;6.394;2024-03-23T15:46:01;8.30;99.90
52209;DHT22;38507;53.132;6.394;2024-03-23T15:48:30;8.20;99.90
52209;DHT22;38507;53.132;6.394;2024-03-23T15:51:03;9.60;99.90
52209;DHT22;38507;53.132;6.394;2024-03-23T15:53:31;8.40;99.90
52209;DHT22;38507;53.132;6.394;2024-03-23T15:55:59;8.30;99.90
52209;DHT22;38507;53.132;6.394;2024-03-23T15:58:25;8.30;99.90
52209;DHT22;38507;53.132;6.394;2024-03-23T16:01:20;8.20;99.90
52209;DHT22;38507;53.132;6.394;2024-03-23T16:03:47;8.20;99.90
52209;DHT22;38507;53.132;6.394;2024-03-23T16:06:13;8.20;99.90
52209;DHT22;38507;53.132;6.394;2024-03-23T16:08:38;9.10;99.90
52209;DHT22;38507;53.132;6.394;2024-03-23T16:11:06;8.50;99.90
52209;DHT22;38507;53.132;6.394;2024-03-23T16:13:33;8.10;99.90
52209;DHT22;38507;53.132;6.394;2024-03-23T16:16:03;8.10;99.90
52209;DHT22;38507;53.132;6.394;2024-03-23T16:18:31;8.00;99.90
52209;DHT22;38507;53.132;6.394;2024-03-23T16:20:59;8.00;99.90
52209;DHT22;38507;53.132;6.394;2024-03-23T16:23:25;7.90;99.90
52209;DHT22;38507;53.132;6.394;2024-03-23T16:25:52;7.90;99.90
52209;DHT22;38507;53.132;6.394;2024-03-23T16:28:25;7.80;99.90
52209;DHT22;38507;53.132;6.394;2024-03-23T16:31:01;8.70;99.90
52209;DHT22;38507;53.132;6.394;2024-03-23T16:33:28;7.70;99.90
52209;DHT22;38507;53.132;6.394;2024-03-23T16:36:00;7.70;99.90
52209;DHT22;38507;53.132;6.394;2024-03-23T16:38:27;7.60;99.90
52209;DHT22;38507;53.132;6.394;2024-03-23T16:40:58;7.60;99.90